Weather Forecast for Al Maktoum Airport 
Friday, April 28, 2017 (10:11 UTC)
Al Maktoum International Airport
Last Updated: 28-Apr-2017 (10:10Z)
Wind Dir/Speed: WNW at 12 kt
Temperature: 37.3°C
Rel. Humidity: 32 %
Pressure: 1009.0 hPa
Visibility: 10000 m
  • METAR OMDW 281000Z 31012KT CAVOK 38/18 Q1009 NOSIG
DWC AIRPORT WEATHER FORECAST FOR 30 HOUR:
DWC TAF:
TAF OMDW 280454Z 2806/2912 18005KT CAVOK BECMG 2808/2810 32015KT BECMG 2816/2818 09005KT BECMG 2903/2905 16014KT BECMG 2910/2912 35015KT=
VALID FROM:
2017-04-28 06:00Z
VALID TILL:
2017-04-29 12:00Z
SURFACE WIND:
S'LY 05KT

BECOMING NW'LY 15KT FROM 0800Z-1000Z TODAY

BECOMING E'LY 05KT FROM 1600Z-1800Z TODAY

BECOMING SSE'LY 14KT FROM 0300Z-0500Z SATURDAY

BECOMING N'LY 15KT FROM 1000Z-1200Z SATURDAY.

VISIBILITY:
07-12 KM.

WEATHER:
FINE.

CLOUD:
NIL SIGNIFICANT.

TEMPERATURE:
MAX TEMPERATURE 39°C AROUND 1000Z TODAY

MIN TEMPERATURE 24°C AROUND 0230Z SATURDAY

MAX TEMPERATURE 40°C AROUND 1200Z SATURDAY.
HUMIDITY:
MIN HUMIDITY 15% AROUND 100OZ TODAY

MAX HUMIDITY 80% AROUND 0230Z SATURDAY

MIN HUMIDITY 15% AROUND 120OZ SATURDAY.
WIND SHEAR:
NIL SIGNIFICANT.
TEMPERATURE INVERSION:
SURFACE TEMPERATURE INVERSION BETWEEN 2200Z TODAY AND 0400Z SATURDAY.
COMMENTS:
NIL.